Weather at Detroit Metropolitan Wayne County Airport

Public forecast

Using degrees Fahrenheit for public forecast. Weather courtesy of forecast.io.

Current aviation weather report (METAR) for Detroit Metropolitan Wayne County Airport

Retrieved 2020/11/25 21:36 UTC (21 minutes ago):

KDTW 252136Z 14008KT 2 1/2SM -RA BR BKN004 OVC010 09/08 A2981 RMK AO2 P0003 T00890078

Aviation forecast (TAF) for Detroit Metropolitan Wayne County Airport

Retrieved 2020/11/25 18:39 UTC (3 hours ago):

TAF KDTW 251736Z 2518/2624 15005KT 2SM -SHRA BR OVC004 FM260300 14004KT 1SM -DZ BR OVC003 FM261000 23003KT 2SM -DZ BR OVC007 TEMPO 2611/2613 1/2SM FG VV002 FM261400 24010KT 4SM BR OVC010 FM261800 26010KT 6SM HZ OVC020